createdAt,value
2018-02-22T00:00:59.502Z,8.30
2018-02-22T00:01:59.471Z,6.80
2018-02-22T00:02:59.509Z,7.20
2018-02-22T00:03:59.434Z,8.20
2018-02-22T00:04:59.411Z,8.80
2018-02-22T00:05:59.597Z,7.00
2018-02-22T00:06:59.373Z,8.90
2018-02-22T00:07:59.354Z,7.80
2018-02-22T00:08:59.364Z,6.90
2018-02-22T00:09:59.317Z,9.20
2018-02-22T00:10:59.297Z,6.60
2018-02-22T00:11:59.289Z,7.50
2018-02-22T00:12:59.277Z,7.70
2018-02-22T00:13:59.243Z,7.40
2018-02-22T00:14:59.275Z,8.40
2018-02-22T00:15:59.204Z,7.80
2018-02-22T00:16:59.185Z,6.00
2018-02-22T00:17:59.209Z,7.90
2018-02-22T00:18:59.147Z,7.50
2018-02-22T00:19:59.128Z,7.10
2018-02-22T00:20:59.133Z,7.50
2018-02-22T00:21:59.091Z,7.40
2018-02-22T00:22:59.071Z,6.90
2018-02-22T00:23:59.057Z,7.30
2018-02-22T00:24:59.034Z,8.00
2018-02-22T00:25:59.016Z,8.50
2018-02-22T00:26:58.996Z,7.50
2018-02-22T00:27:58.977Z,7.40
2018-02-22T00:28:58.961Z,9.00
2018-02-22T00:29:58.940Z,8.20
2018-02-22T00:30:58.921Z,8.50
2018-02-22T00:31:58.932Z,7.50
2018-02-22T00:32:58.883Z,7.40
2018-02-22T00:33:58.897Z,6.80
2018-02-22T00:34:58.851Z,7.70
2018-02-22T00:35:58.857Z,7.10
2018-02-22T00:36:58.814Z,7.40
2018-02-22T00:37:58.789Z,8.10
2018-02-22T00:38:58.783Z,7.60
2018-02-22T00:39:58.750Z,7.10
2018-02-22T00:40:58.732Z,7.80
2018-02-22T00:41:58.713Z,6.70
2018-02-22T00:42:58.693Z,8.90
2018-02-22T00:43:58.675Z,7.80
2018-02-22T00:44:58.661Z,8.40
2018-02-22T00:45:58.650Z,9.40
2018-02-22T00:46:58.619Z,8.30
2018-02-22T00:47:58.625Z,8.60
2018-02-22T00:48:58.580Z,7.80
2018-02-22T00:49:58.565Z,7.10
2018-02-22T00:50:58.551Z,7.30
2018-02-22T00:51:58.523Z,6.70
2018-02-22T00:52:58.504Z,9.00
2018-02-22T00:53:58.485Z,7.70
2018-02-22T00:54:58.465Z,7.30
2018-02-22T00:55:58.450Z,9.20
2018-02-22T00:56:58.428Z,8.10
2018-02-22T00:57:58.409Z,8.00
2018-02-22T00:58:58.392Z,7.30
2018-02-22T00:59:58.371Z,8.30
2018-02-22T01:00:58.352Z,7.40
2018-02-22T01:01:58.334Z,7.70
2018-02-22T01:02:58.314Z,7.60
2018-02-22T01:03:58.295Z,6.50
2018-02-22T01:04:58.276Z,8.30
2018-02-22T01:05:58.257Z,7.50
2018-02-22T01:06:58.238Z,8.50
2018-02-22T01:07:58.222Z,8.30
2018-02-22T01:08:58.210Z,7.30
2018-02-22T01:09:58.212Z,7.30
2018-02-22T01:10:58.178Z,7.90
2018-02-22T01:11:58.143Z,7.40
2018-02-22T01:12:58.145Z,6.80
2018-02-22T01:13:58.105Z,7.20
2018-02-22T01:14:58.084Z,7.50
2018-02-22T01:15:58.071Z,7.80
2018-02-22T01:16:58.047Z,8.30
2018-02-22T01:17:58.028Z,6.50
2018-02-22T01:18:58.016Z,8.90
2018-02-22T01:19:57.989Z,8.30
2018-02-22T01:20:57.978Z,8.10
2018-02-22T01:21:57.976Z,6.80
2018-02-22T01:22:57.939Z,7.50
2018-02-22T01:23:57.913Z,7.80
2018-02-22T01:24:57.912Z,7.70
2018-02-22T01:25:57.876Z,6.90
2018-02-22T01:26:57.856Z,9.50
2018-02-22T01:27:57.837Z,7.20
2018-02-22T01:28:57.819Z,7.50
2018-02-22T01:29:57.800Z,8.20
2018-02-22T01:30:57.780Z,5.90
2018-02-22T01:31:57.761Z,7.40
2018-02-22T01:32:57.742Z,7.30
2018-02-22T01:33:57.727Z,8.50
2018-02-22T01:34:57.704Z,7.90
2018-02-22T01:35:57.685Z,8.30
2018-02-22T01:36:57.669Z,7.00
2018-02-22T01:37:57.647Z,6.60
2018-02-22T01:38:57.631Z,7.40
2018-02-22T01:39:57.608Z,8.30
2018-02-22T01:40:57.589Z,7.50
2018-02-22T01:41:57.570Z,7.60
2018-02-22T01:42:57.551Z,7.40
2018-02-22T01:43:57.532Z,8.50
2018-02-22T01:44:57.513Z,8.40
2018-02-22T01:45:57.511Z,6.90
2018-02-22T01:46:57.479Z,8.40
2018-02-22T01:47:57.675Z,8.40
2018-02-22T01:48:57.444Z,9.20
2018-02-22T01:49:57.419Z,6.90
2018-02-22T01:50:57.449Z,7.40
2018-02-22T01:51:57.379Z,7.00
2018-02-22T01:52:57.361Z,8.30
2018-02-22T01:53:57.373Z,7.80
2018-02-22T01:54:57.321Z,8.60
2018-02-22T01:55:57.303Z,7.30
2018-02-22T01:56:57.302Z,7.90
2018-02-22T01:57:57.284Z,6.40
2018-02-22T01:58:57.253Z,8.70
2018-02-22T01:59:57.236Z,9.20
2018-02-22T02:00:57.208Z,8.70
2018-02-22T02:01:57.396Z,10.60
2018-02-22T02:02:57.170Z,7.60
2018-02-22T02:03:57.150Z,7.30
2018-02-22T02:04:57.164Z,8.20
2018-02-22T02:05:57.112Z,7.80
2018-02-22T02:06:57.092Z,8.30
2018-02-22T02:07:57.092Z,7.50
2018-02-22T02:08:57.054Z,8.70
2018-02-22T02:09:57.035Z,6.80
2018-02-22T02:10:57.021Z,8.00
2018-02-22T02:11:56.996Z,6.80
2018-02-22T02:12:56.977Z,7.80
2018-02-22T02:13:56.960Z,8.10
2018-02-22T02:14:56.938Z,8.00
2018-02-22T02:15:56.919Z,8.20
2018-02-22T02:16:56.900Z,7.60
2018-02-22T02:17:56.881Z,8.80
2018-02-22T02:18:56.861Z,7.20
2018-02-22T02:19:56.842Z,7.60
2018-02-22T02:20:56.842Z,7.50
2018-02-22T02:21:56.812Z,8.90
2018-02-22T02:22:56.809Z,8.50
2018-02-22T02:23:56.774Z,7.50
2018-02-22T02:24:56.746Z,7.30
2018-02-22T02:25:56.743Z,8.70
2018-02-22T02:26:56.707Z,7.90
2018-02-22T02:27:56.687Z,8.20
2018-02-22T02:28:56.674Z,7.20
2018-02-22T02:29:56.650Z,9.50
2018-02-22T02:30:56.629Z,7.70
2018-02-22T02:31:56.611Z,7.60
2018-02-22T02:32:56.592Z,9.20
2018-02-22T02:33:56.578Z,6.60
2018-02-22T02:34:56.582Z,7.40
2018-02-22T02:35:56.549Z,8.40
2018-02-22T02:36:56.515Z,8.20
2018-02-22T02:37:56.509Z,8.30
2018-02-22T02:38:56.474Z,7.90
2018-02-22T02:39:56.456Z,7.20
2018-02-22T02:40:56.438Z,8.80
2018-02-22T02:41:56.417Z,7.80
2018-02-22T02:42:56.397Z,9.20
2018-02-22T02:43:56.377Z,8.00
2018-02-22T02:44:56.359Z,8.80
2018-02-22T02:45:56.339Z,7.50
2018-02-22T02:46:56.321Z,7.10
2018-02-22T02:47:56.307Z,8.20
2018-02-22T02:48:56.281Z,8.00
2018-02-22T02:49:56.261Z,8.90
2018-02-22T02:50:56.242Z,8.60
2018-02-22T02:51:56.228Z,7.00
2018-02-22T02:52:56.202Z,7.90
2018-02-22T02:53:56.183Z,7.20
2018-02-22T02:54:56.163Z,7.50
2018-02-22T02:55:56.144Z,8.50
2018-02-22T02:56:56.125Z,7.20
2018-02-22T02:57:56.106Z,7.80
2018-02-22T02:58:56.096Z,7.60
2018-02-22T02:59:56.066Z,6.70
2018-02-22T03:00:56.069Z,6.50
2018-02-22T03:01:56.031Z,7.20
2018-02-22T03:02:56.064Z,7.10
2018-02-22T03:03:55.996Z,7.00
2018-02-22T03:04:55.971Z,6.80
2018-02-22T03:05:56.161Z,7.80
2018-02-22T03:06:55.933Z,7.20
2018-02-22T03:07:55.911Z,6.90
2018-02-22T03:08:55.924Z,7.60
2018-02-22T03:09:55.872Z,7.70
2018-02-22T03:10:55.851Z,7.00
2018-02-22T03:11:55.855Z,6.90
2018-02-22T03:12:55.836Z,6.90
2018-02-22T03:13:55.796Z,6.60
2018-02-22T03:14:55.793Z,7.20
2018-02-22T03:15:55.762Z,6.90
2018-02-22T03:16:55.736Z,7.00
2018-02-22T03:17:55.923Z,7.20
2018-02-22T03:18:55.696Z,7.30
2018-02-22T03:19:55.677Z,7.00
2018-02-22T03:20:55.689Z,6.80
2018-02-22T03:21:55.638Z,7.80
2018-02-22T03:22:55.620Z,6.70
2018-02-22T03:23:55.617Z,6.30
2018-02-22T03:24:55.579Z,7.30
2018-02-22T03:25:55.560Z,7.60
2018-02-22T03:26:55.540Z,7.30
2018-02-22T03:27:55.525Z,8.10
2018-02-22T03:28:55.501Z,5.80
2018-02-22T03:29:55.482Z,5.70
2018-02-22T03:30:55.462Z,7.30
2018-02-22T03:31:55.442Z,8.40
2018-02-22T03:32:55.423Z,6.90
2018-02-22T03:33:55.404Z,6.90
2018-02-22T03:34:55.384Z,6.50
2018-02-22T03:35:55.364Z,6.90
2018-02-22T03:36:55.345Z,8.40
2018-02-22T03:37:55.328Z,6.90
2018-02-22T03:38:55.335Z,6.90
2018-02-22T03:39:55.299Z,7.30
2018-02-22T03:40:55.266Z,6.50
2018-02-22T03:41:55.269Z,7.70
2018-02-22T03:42:55.226Z,7.70
2018-02-22T03:43:55.207Z,6.50
2018-02-22T03:44:55.199Z,6.70
2018-02-22T03:45:55.171Z,7.60
2018-02-22T03:46:55.148Z,6.50
2018-02-22T03:47:55.129Z,7.10
2018-02-22T03:48:55.110Z,7.00
2018-02-22T03:49:55.090Z,7.50
2018-02-22T03:50:55.070Z,5.50
2018-02-22T03:51:55.063Z,5.50
2018-02-22T03:52:55.031Z,6.70
2018-02-22T03:53:55.036Z,7.00
2018-02-22T03:54:54.993Z,6.10
2018-02-22T03:55:54.972Z,5.70
2018-02-22T03:56:54.962Z,7.90
2018-02-22T03:57:54.933Z,6.30
2018-02-22T03:58:54.913Z,7.10
2018-02-22T03:59:54.894Z,6.10
2018-02-22T04:00:54.901Z,7.00
2018-02-22T04:01:54.854Z,5.20
2018-02-22T04:02:54.834Z,6.60
2018-02-22T04:03:54.827Z,5.70
2018-02-22T04:04:54.796Z,7.30
2018-02-22T04:05:54.777Z,7.10
2018-02-22T04:06:54.758Z,6.90
2018-02-22T04:07:54.737Z,6.80
2018-02-22T04:08:54.717Z,6.80
2018-02-22T04:09:54.699Z,6.70
2018-02-22T04:10:54.677Z,6.50
2018-02-22T04:11:54.658Z,5.40
2018-02-22T04:12:54.638Z,5.90
2018-02-22T04:13:54.619Z,6.80
2018-02-22T04:14:54.598Z,6.70
2018-02-22T04:15:54.578Z,7.00
2018-02-22T04:16:54.563Z,7.00
2018-02-22T04:17:54.543Z,7.50
2018-02-22T04:18:54.548Z,5.70
2018-02-22T04:19:54.511Z,7.80
2018-02-22T04:20:54.480Z,6.20
2018-02-22T04:21:54.481Z,5.70
2018-02-22T04:22:54.441Z,6.70
2018-02-22T04:23:54.424Z,5.80
2018-02-22T04:24:54.408Z,6.60
2018-02-22T04:25:54.382Z,6.10
2018-02-22T04:26:54.362Z,5.80
2018-02-22T04:27:54.342Z,6.00
2018-02-22T04:28:54.323Z,6.30
2018-02-22T04:29:54.303Z,7.10
2018-02-22T04:30:54.285Z,7.00
2018-02-22T04:31:54.278Z,6.30
2018-02-22T04:32:54.246Z,5.10
2018-02-22T04:33:54.247Z,6.20
2018-02-22T04:34:54.204Z,7.50
2018-02-22T04:35:54.184Z,5.60
2018-02-22T04:36:54.175Z,7.40
2018-02-22T04:37:54.145Z,6.80
2018-02-22T04:38:54.125Z,6.40
2018-02-22T04:39:54.105Z,6.10
2018-02-22T04:40:54.085Z,5.80
2018-02-22T04:41:54.066Z,6.20
2018-02-22T04:42:54.046Z,6.70
2018-02-22T04:43:54.026Z,5.00
2018-02-22T04:44:54.006Z,6.00
2018-02-22T04:45:53.988Z,7.70
2018-02-22T04:46:53.966Z,7.10
2018-02-22T04:47:53.946Z,6.90
2018-02-22T04:48:53.926Z,6.20
2018-02-22T04:49:53.910Z,5.00
2018-02-22T04:50:53.887Z,6.20
2018-02-22T04:51:53.866Z,7.20
2018-02-22T04:52:53.847Z,6.40
2018-02-22T04:53:53.828Z,5.50
2018-02-22T04:54:53.807Z,6.70
2018-02-22T04:55:53.787Z,6.70
2018-02-22T04:56:53.768Z,6.80
2018-02-22T04:57:53.747Z,6.20
2018-02-22T04:58:53.727Z,6.40
2018-02-22T04:59:53.724Z,6.10
2018-02-22T05:00:53.693Z,6.50
2018-02-22T05:01:53.722Z,7.10
2018-02-22T05:02:53.657Z,7.60
2018-02-22T05:03:53.632Z,6.30
2018-02-22T05:04:53.658Z,6.40
2018-02-22T05:05:53.589Z,6.00
2018-02-22T05:06:53.569Z,6.30
2018-02-22T05:07:53.601Z,7.00
2018-02-22T05:08:53.530Z,6.80
2018-02-22T05:09:53.510Z,6.30
2018-02-22T05:10:53.514Z,7.30
2018-02-22T05:11:53.470Z,6.20
2018-02-22T05:12:53.458Z,6.80
2018-02-22T05:13:53.442Z,6.40
2018-02-22T05:14:53.426Z,5.90
2018-02-22T05:15:53.390Z,6.00
2018-02-22T05:16:53.585Z,7.80
2018-02-22T05:17:53.352Z,8.70
2018-02-22T05:18:53.331Z,6.60
2018-02-22T05:19:53.357Z,5.70
2018-02-22T05:20:53.291Z,6.30
2018-02-22T05:21:53.271Z,6.10
2018-02-22T05:22:53.279Z,6.50
2018-02-22T05:23:53.233Z,8.10
2018-02-22T05:24:53.212Z,5.80
2018-02-22T05:25:53.206Z,6.80
2018-02-22T05:26:53.172Z,6.70
2018-02-22T05:27:53.152Z,5.90
2018-02-22T05:28:53.136Z,6.70
2018-02-22T05:29:53.116Z,6.80
2018-02-22T05:30:53.092Z,6.60
2018-02-22T05:31:53.076Z,6.20
2018-02-22T05:32:53.053Z,5.70
2018-02-22T05:33:53.034Z,6.10
2018-02-22T05:34:53.071Z,8.00
2018-02-22T05:35:53.005Z,5.90
2018-02-22T05:36:53.005Z,6.60
2018-02-22T05:37:52.956Z,7.40
2018-02-22T05:38:52.934Z,6.90
2018-02-22T05:39:52.933Z,6.20
2018-02-22T05:40:52.894Z,6.70
2018-02-22T05:41:52.879Z,5.80
2018-02-22T05:42:52.854Z,6.60
2018-02-22T05:43:52.834Z,5.40
2018-02-22T05:44:52.815Z,6.60
2018-02-22T05:45:52.795Z,5.90
2018-02-22T05:46:52.774Z,5.90
2018-02-22T05:47:52.755Z,6.70
2018-02-22T05:48:52.735Z,6.70
2018-02-22T05:49:52.717Z,7.40
2018-02-22T05:50:52.695Z,5.70
2018-02-22T05:51:52.675Z,5.90
2018-02-22T05:52:52.655Z,6.10
2018-02-22T05:53:52.635Z,6.80
2018-02-22T05:54:52.615Z,6.20
2018-02-22T05:55:52.595Z,6.80
2018-02-22T05:56:52.576Z,6.60
2018-02-22T05:57:52.560Z,6.10
2018-02-22T05:58:52.534Z,7.10
2018-02-22T05:59:52.515Z,7.70
2018-02-22T06:00:52.496Z,6.50
2018-02-22T06:01:52.476Z,6.60
2018-02-22T06:02:52.455Z,5.70
2018-02-22T06:03:52.467Z,6.60
2018-02-22T06:04:52.429Z,5.60
2018-02-22T06:05:52.396Z,5.50
2018-02-22T06:06:52.423Z,6.20
2018-02-22T06:07:52.361Z,6.30
2018-02-22T06:08:52.344Z,5.70
2018-02-22T06:09:52.363Z,5.70
2018-02-22T06:10:52.330Z,6.90
2018-02-22T06:11:52.275Z,6.40
2018-02-22T06:12:52.256Z,7.30
2018-02-22T06:13:52.299Z,6.20
2018-02-22T06:14:52.216Z,6.80
2018-02-22T06:15:52.196Z,7.00
2018-02-22T06:16:52.182Z,5.80
2018-02-22T06:17:52.156Z,6.00
2018-02-22T06:18:52.136Z,5.00
2018-02-22T06:19:52.116Z,7.00
2018-02-22T06:20:52.095Z,4.90
2018-02-22T06:21:52.077Z,6.40
2018-02-22T06:22:52.056Z,7.40
2018-02-22T06:23:52.036Z,7.30
2018-02-22T06:24:52.020Z,6.30
2018-02-22T06:25:51.996Z,7.70
2018-02-22T06:26:51.975Z,6.20
2018-02-22T06:27:51.996Z,5.60
2018-02-22T06:28:51.941Z,6.50
2018-02-22T06:29:51.979Z,6.70
2018-02-22T06:30:51.895Z,6.10
2018-02-22T06:31:51.875Z,6.00
2018-02-22T06:32:51.856Z,6.20
2018-02-22T06:33:51.841Z,6.10
2018-02-22T06:34:51.816Z,5.80
2018-02-22T06:35:51.795Z,7.00
2018-02-22T06:36:51.882Z,6.40
2018-02-22T06:37:51.756Z,6.30
2018-02-22T06:38:51.735Z,6.40
2018-02-22T06:39:51.768Z,5.70
2018-02-22T06:40:51.696Z,6.90
2018-02-22T06:41:51.678Z,6.60
2018-02-22T06:42:51.701Z,5.10
2018-02-22T06:43:51.635Z,5.00
2018-02-22T06:44:51.908Z,5.30
2018-02-22T06:45:51.641Z,5.80
2018-02-22T06:46:51.575Z,5.40
2018-02-22T06:47:51.555Z,5.90
2018-02-22T06:48:51.550Z,5.40
2018-02-22T06:49:51.522Z,5.70
2018-02-22T06:50:51.495Z,5.80
2018-02-22T06:51:51.475Z,6.00
2018-02-22T06:52:51.455Z,6.70
2018-02-22T06:53:51.436Z,7.60
2018-02-22T06:54:51.416Z,5.00
2018-02-22T06:55:51.395Z,7.00
2018-02-22T06:56:51.375Z,6.20
2018-02-22T06:57:51.356Z,6.20
2018-02-22T06:58:51.339Z,5.60
2018-02-22T06:59:51.316Z,7.20
2018-02-22T07:00:51.297Z,7.70
2018-02-22T07:01:51.276Z,5.60
2018-02-22T07:02:51.256Z,5.50
2018-02-22T07:03:51.237Z,5.40
2018-02-22T07:04:51.217Z,6.80
2018-02-22T07:05:51.271Z,6.50
2018-02-22T07:06:51.177Z,6.00
2018-02-22T07:07:51.157Z,7.00
2018-02-22T07:08:51.223Z,5.80
2018-02-22T07:09:51.117Z,6.80
2018-02-22T07:10:51.097Z,6.90
2018-02-22T07:12:51.058Z,5.80
2018-02-22T07:13:51.039Z,6.80
2018-02-22T07:14:51.064Z,5.90
2018-02-22T07:15:50.999Z,6.20
2018-02-22T07:16:50.980Z,5.70
2018-02-22T07:17:51.168Z,5.70
2018-02-22T07:18:50.940Z,6.00
2018-02-22T07:19:50.921Z,6.70
2018-02-22T07:20:50.923Z,5.10
2018-02-22T07:21:50.882Z,6.10
2018-02-22T07:22:50.861Z,5.30
2018-02-22T07:23:50.866Z,5.60
2018-02-22T07:24:50.824Z,5.90
2018-02-22T07:25:50.804Z,6.80
2018-02-22T07:26:50.787Z,6.00
2018-02-22T07:27:50.764Z,6.40
2018-02-22T07:28:50.748Z,5.10
2018-02-22T07:29:50.730Z,5.10
2018-02-22T07:30:50.705Z,6.10
2018-02-22T07:31:50.686Z,6.10
2018-02-22T07:32:50.701Z,5.60
2018-02-22T07:33:50.652Z,5.40
2018-02-22T07:34:50.628Z,5.60
2018-02-22T07:35:50.615Z,5.50
2018-02-22T07:36:50.592Z,5.80
2018-02-22T07:37:50.572Z,4.90
2018-02-22T07:38:50.556Z,7.40
2018-02-22T07:39:50.533Z,5.00
2018-02-22T07:40:50.760Z,5.30
2018-02-22T07:41:50.496Z,6.10
2018-02-22T07:42:50.476Z,6.70
2018-02-22T07:43:50.494Z,5.40
2018-02-22T07:44:50.438Z,6.30
2018-02-22T07:45:50.421Z,5.10
2018-02-22T07:47:50.382Z,4.70
2018-02-22T07:48:50.364Z,6.00
2018-02-22T07:50:50.368Z,5.60
2018-02-22T07:51:50.308Z,7.30
2018-02-22T07:52:50.492Z,5.20
2018-02-22T07:53:50.272Z,5.00
2018-02-22T07:54:50.253Z,5.80
2018-02-22T07:55:50.234Z,5.40
2018-02-22T07:56:50.228Z,6.10
2018-02-22T07:57:50.200Z,5.20
2018-02-22T07:58:50.182Z,4.40
2018-02-22T07:59:50.172Z,6.10
2018-02-22T08:00:50.163Z,5.90
2018-02-22T08:01:50.133Z,5.60
2018-02-22T08:02:50.117Z,6.20
2018-02-22T08:03:50.102Z,5.30
2018-02-22T08:04:50.087Z,4.60
2018-02-22T08:05:50.072Z,6.00
2018-02-22T08:06:50.058Z,4.40
2018-02-22T08:07:50.045Z,6.30
2018-02-22T08:08:50.236Z,4.80
2018-02-22T08:09:50.019Z,5.40
2018-02-22T08:10:50.004Z,5.70
2018-02-22T08:11:50.058Z,5.70
2018-02-22T08:12:49.979Z,5.70
2018-02-22T08:13:49.966Z,5.20
2018-02-22T08:14:50.002Z,5.80
2018-02-22T08:15:49.941Z,5.60
2018-02-22T08:16:49.932Z,6.10
2018-02-22T08:17:49.962Z,5.80
2018-02-22T08:18:49.906Z,7.40
2018-02-22T08:19:49.893Z,5.50
2018-02-22T08:20:49.884Z,5.60
2018-02-22T08:21:49.872Z,6.10
2018-02-22T08:22:49.859Z,4.90
2018-02-22T08:23:49.849Z,5.80
2018-02-22T08:24:49.839Z,6.00
2018-02-22T08:25:50.085Z,6.00
2018-02-22T08:26:49.819Z,6.00
2018-02-22T08:27:49.820Z,5.50
2018-02-22T08:29:49.787Z,6.40
2018-02-22T08:30:49.777Z,6.10
2018-02-22T08:31:49.806Z,5.60
2018-02-22T08:32:49.756Z,5.00
2018-02-22T08:33:49.748Z,5.60
2018-02-22T08:34:49.738Z,5.30
2018-02-22T08:35:49.728Z,6.20
2018-02-22T08:36:49.719Z,5.30
2018-02-22T08:37:49.710Z,5.60
2018-02-22T08:38:49.704Z,6.00
2018-02-22T08:39:49.691Z,5.50
2018-02-22T08:40:49.682Z,6.10
2018-02-22T08:41:49.674Z,5.90
2018-02-22T08:42:49.769Z,5.30
2018-02-22T08:43:49.656Z,5.10
2018-02-22T08:44:49.673Z,5.10
2018-02-22T08:45:49.688Z,5.00
2018-02-22T08:46:49.634Z,5.70
2018-02-22T08:47:49.623Z,5.70
2018-02-22T08:48:49.616Z,6.30
2018-02-22T08:49:49.608Z,5.70
2018-02-22T08:50:49.598Z,5.30
2018-02-22T08:51:49.591Z,5.70
2018-02-22T08:52:49.583Z,5.60
2018-02-22T08:53:49.575Z,6.00
2018-02-22T08:54:49.569Z,6.60
2018-02-22T08:55:49.560Z,5.90
2018-02-22T08:56:49.756Z,5.20
2018-02-22T08:57:49.547Z,5.50
2018-02-22T08:58:49.537Z,6.30
2018-02-22T08:59:49.533Z,6.40
2018-02-22T09:00:49.540Z,6.30
2018-02-22T09:01:49.516Z,6.30
2018-02-22T09:02:49.508Z,5.70
2018-02-22T09:03:49.503Z,6.00
2018-02-22T09:04:49.494Z,5.80
2018-02-22T09:05:49.488Z,6.20
2018-02-22T09:06:49.480Z,5.80
2018-02-22T09:07:49.474Z,5.10
2018-02-22T09:08:49.670Z,6.10
2018-02-22T09:09:49.461Z,6.60
2018-02-22T09:10:49.453Z,5.10
2018-02-22T09:11:49.493Z,6.50
2018-02-22T09:12:49.442Z,6.40
2018-02-22T09:13:49.435Z,6.30
2018-02-22T09:14:49.442Z,6.50
2018-02-22T09:15:49.423Z,6.00
2018-02-22T09:16:49.418Z,6.60
2018-02-22T09:17:49.411Z,6.20
2018-02-22T09:18:49.406Z,6.50
2018-02-22T09:19:49.482Z,5.70
2018-02-22T09:20:49.395Z,6.30
2018-02-22T09:21:49.389Z,6.90
2018-02-22T09:22:49.588Z,5.70
2018-02-22T09:23:49.378Z,5.70
2018-02-22T09:24:49.372Z,5.10
2018-02-22T09:25:49.402Z,5.10
2018-02-22T09:26:49.362Z,6.10
2018-02-22T09:27:49.364Z,5.70
2018-02-22T09:28:49.355Z,5.40
2018-02-22T09:29:49.349Z,5.60
2018-02-22T09:30:49.341Z,5.80
2018-02-22T09:31:49.336Z,5.00
2018-02-22T09:32:49.331Z,5.10
2018-02-22T09:33:49.404Z,5.10
2018-02-22T09:34:49.323Z,6.90
2018-02-22T09:35:49.317Z,6.20
2018-02-22T09:36:49.349Z,5.70
2018-02-22T09:37:49.309Z,5.80
2018-02-22T09:38:49.303Z,5.20
2018-02-22T09:39:49.299Z,4.40
2018-02-22T09:40:49.295Z,6.10
2018-02-22T09:41:49.291Z,5.70
2018-02-22T09:42:49.289Z,5.60
2018-02-22T09:43:49.288Z,5.50
2018-02-22T09:44:49.482Z,5.00
2018-02-22T09:45:49.275Z,5.00
2018-02-22T09:46:49.270Z,4.70
2018-02-22T09:47:49.470Z,5.60
2018-02-22T09:48:49.262Z,5.00
2018-02-22T09:49:49.259Z,5.20
2018-02-22T09:50:49.253Z,4.60
2018-02-22T09:51:49.253Z,5.20
2018-02-22T09:52:49.247Z,4.20
2018-02-22T09:53:49.250Z,5.20
2018-02-22T09:54:49.238Z,5.00
2018-02-22T09:55:49.238Z,4.70
2018-02-22T09:56:49.233Z,5.10
2018-02-22T09:57:49.229Z,5.00
2018-02-22T09:58:49.231Z,4.70
2018-02-22T09:59:49.218Z,4.50
2018-02-22T10:00:49.214Z,4.10
2018-02-22T10:01:49.215Z,4.80
2018-02-22T10:02:49.209Z,4.80
2018-02-22T10:03:49.204Z,4.50
2018-02-22T10:04:49.202Z,4.60
2018-02-22T10:05:49.199Z,4.70
2018-02-22T10:06:49.394Z,4.60
2018-02-22T10:07:49.187Z,4.50
2018-02-22T10:08:49.183Z,5.00
2018-02-22T10:09:49.197Z,4.20
2018-02-22T10:10:49.174Z,5.20
2018-02-22T10:11:49.171Z,4.30
2018-02-22T10:12:49.199Z,4.40
2018-02-22T10:13:49.163Z,4.70
2018-02-22T10:14:49.159Z,4.40
2018-02-22T10:15:49.156Z,5.20
2018-02-22T10:16:49.153Z,4.90
2018-02-22T10:17:49.232Z,4.60
2018-02-22T10:18:49.145Z,4.40
2018-02-22T10:19:49.144Z,5.00
2018-02-22T10:20:49.188Z,5.10
2018-02-22T10:21:49.134Z,5.50
2018-02-22T10:22:49.130Z,5.20
2018-02-22T10:23:49.128Z,5.40
2018-02-22T10:24:49.123Z,4.40
2018-02-22T10:25:49.120Z,4.30
2018-02-22T10:26:49.116Z,4.80
2018-02-22T10:27:49.116Z,5.60
2018-02-22T10:28:49.361Z,5.00
2018-02-22T10:29:49.107Z,5.00
2018-02-22T10:30:49.103Z,4.50
2018-02-22T10:31:49.305Z,5.50
2018-02-22T10:32:49.098Z,5.20
2018-02-22T10:33:49.097Z,5.60
2018-02-22T10:34:49.093Z,4.70
2018-02-22T10:35:49.093Z,4.90
2018-02-22T10:36:49.088Z,4.40
2018-02-22T10:37:49.084Z,4.30
2018-02-22T10:38:49.080Z,4.70
2018-02-22T10:39:49.138Z,5.10
2018-02-22T10:40:49.074Z,4.90
2018-02-22T10:41:49.071Z,4.70
2018-02-22T10:43:49.067Z,4.50
2018-02-22T10:44:49.093Z,4.40
2018-02-22T10:45:49.086Z,4.90
2018-02-22T10:46:49.060Z,5.30
2018-02-22T10:47:49.058Z,4.60
2018-02-22T10:48:49.057Z,4.90
2018-02-22T10:49:49.055Z,5.50
2018-02-22T10:50:49.063Z,5.00
2018-02-22T10:51:49.051Z,5.10
2018-02-22T10:52:49.055Z,4.40
2018-02-22T10:53:49.095Z,4.90
2018-02-22T10:54:49.051Z,4.40
2018-02-22T10:55:49.047Z,4.70
2018-02-22T10:56:49.055Z,4.90
2018-02-22T10:57:49.040Z,4.90
2018-02-22T10:58:49.038Z,4.00
2018-02-22T10:59:49.051Z,4.60
2018-02-22T11:00:49.088Z,4.30
2018-02-22T11:01:49.036Z,4.70
2018-02-22T11:02:49.030Z,4.60
2018-02-22T11:03:49.028Z,4.40
2018-02-22T11:04:49.033Z,4.60
2018-02-22T11:05:49.026Z,5.70
2018-02-22T11:06:49.022Z,4.50
2018-02-22T11:07:49.021Z,4.50
2018-02-22T11:08:49.111Z,5.20
2018-02-22T11:09:49.019Z,4.10
2018-02-22T11:10:49.018Z,4.60
2018-02-22T11:11:49.213Z,4.60
2018-02-22T11:12:49.015Z,4.60
2018-02-22T11:13:49.005Z,4.60
2018-02-22T11:14:49.009Z,4.80
2018-02-22T11:15:49.001Z,4.10
2018-02-22T11:16:48.996Z,4.40
2018-02-22T11:17:48.994Z,3.70
2018-02-22T11:18:48.991Z,4.20
2018-02-22T11:19:49.218Z,3.90
2018-02-22T11:20:48.984Z,4.40
2018-02-22T11:21:48.984Z,4.40
2018-02-22T11:22:49.019Z,4.60
2018-02-22T11:23:48.976Z,5.20
2018-02-22T11:24:48.976Z,3.80
2018-02-22T11:25:48.971Z,4.10
2018-02-22T11:26:48.966Z,3.90
2018-02-22T11:27:48.962Z,4.20
2018-02-22T11:28:48.966Z,4.10
2018-02-22T11:29:48.956Z,4.20
2018-02-22T11:30:49.154Z,3.40
2018-02-22T11:31:48.947Z,3.80
2018-02-22T11:32:48.946Z,4.30
2018-02-22T11:33:48.983Z,3.90
2018-02-22T11:34:48.936Z,3.90
2018-02-22T11:35:48.930Z,4.80
2018-02-22T11:36:48.927Z,4.50
2018-02-22T11:37:48.921Z,3.60
2018-02-22T11:38:48.916Z,3.30
2018-02-22T11:39:48.911Z,3.90
2018-02-22T11:40:48.908Z,3.90
2018-02-22T11:41:48.984Z,3.70
2018-02-22T11:42:48.897Z,3.10
2018-02-22T11:43:48.892Z,4.40
2018-02-22T11:44:48.925Z,3.80
2018-02-22T11:45:48.886Z,3.50
2018-02-22T11:46:48.879Z,4.30
2018-02-22T11:47:48.904Z,4.00
2018-02-22T11:48:48.866Z,4.50
2018-02-22T11:49:48.863Z,4.70
2018-02-22T11:50:48.854Z,3.50
2018-02-22T11:51:48.878Z,5.30
2018-02-22T11:52:48.845Z,3.90
2018-02-22T11:53:48.838Z,3.20
2018-02-22T11:54:48.832Z,3.30
2018-02-22T11:55:48.869Z,3.30
2018-02-22T11:56:48.821Z,3.90
2018-02-22T11:57:48.817Z,3.80
2018-02-22T11:58:48.904Z,3.20
2018-02-22T11:59:48.798Z,3.60
2018-02-22T12:00:48.791Z,4.20
2018-02-22T12:01:48.838Z,3.90
2018-02-22T12:02:48.776Z,4.20
2018-02-22T12:03:48.770Z,3.60
2018-02-22T12:04:48.804Z,4.00
2018-02-22T12:05:48.758Z,3.20
2018-02-22T12:06:48.752Z,4.10
2018-02-22T12:07:48.742Z,4.00
2018-02-22T12:08:48.736Z,3.80
2018-02-22T12:09:48.732Z,3.90
2018-02-22T12:10:48.721Z,3.50
2018-02-22T12:11:48.718Z,3.70
2018-02-22T12:12:48.780Z,3.40
2018-02-22T12:13:48.701Z,4.50
2018-02-22T12:14:48.694Z,3.10
2018-02-22T12:15:48.781Z,3.10
2018-02-22T12:16:48.681Z,3.70
2018-02-22T12:17:48.674Z,4.30
2018-02-22T12:18:48.735Z,3.10
2018-02-22T12:19:48.661Z,3.60
2018-02-22T12:20:48.653Z,3.20
2018-02-22T12:21:48.651Z,3.60
2018-02-22T12:22:48.650Z,3.90
2018-02-22T12:23:48.634Z,4.10
2018-02-22T12:24:48.627Z,3.80
2018-02-22T12:25:48.621Z,4.20
2018-02-22T12:26:48.665Z,4.50
2018-02-22T12:27:48.612Z,3.70
2018-02-22T12:28:48.601Z,3.60
2018-02-22T12:29:48.640Z,4.80
2018-02-22T12:30:48.589Z,3.90
2018-02-22T12:31:48.582Z,3.90
2018-02-22T12:32:48.578Z,3.70
2018-02-22T12:33:48.569Z,3.20
2018-02-22T12:34:48.561Z,4.00
2018-02-22T12:35:48.556Z,3.60
2018-02-22T12:36:48.548Z,3.90
2018-02-22T12:37:48.544Z,3.80
2018-02-22T12:38:48.533Z,3.90
2018-02-22T12:39:48.530Z,3.60
2018-02-22T12:40:48.582Z,3.60
2018-02-22T12:41:48.519Z,3.30
2018-02-22T12:42:48.506Z,4.00
2018-02-22T12:43:48.545Z,5.00
2018-02-22T12:44:48.493Z,3.70
2018-02-22T12:45:48.495Z,3.70
2018-02-22T12:46:48.509Z,3.90
2018-02-22T12:47:48.473Z,3.50
2018-02-22T12:48:48.467Z,3.50
2018-02-22T12:49:48.502Z,2.90
2018-02-22T12:50:48.453Z,3.80
2018-02-22T12:51:48.447Z,4.10
2018-02-22T12:52:48.446Z,3.60
2018-02-22T12:53:48.434Z,4.40
2018-02-22T12:54:48.629Z,3.80
2018-02-22T12:55:48.420Z,3.50
2018-02-22T12:56:48.418Z,4.30
2018-02-22T12:57:48.610Z,3.30
2018-02-22T12:58:48.463Z,4.50
2018-02-22T12:59:48.396Z,4.40
2018-02-22T13:00:48.392Z,4.10
2018-02-22T13:02:48.374Z,4.80
2018-02-22T13:03:48.372Z,5.30
2018-02-22T13:04:48.376Z,4.60
2018-02-22T13:05:48.357Z,3.40
2018-02-22T13:06:48.348Z,3.50
2018-02-22T13:07:48.361Z,3.30
2018-02-22T13:08:48.335Z,3.80
2018-02-22T13:09:48.329Z,4.50
2018-02-22T13:10:48.321Z,3.90
2018-02-22T13:11:48.314Z,4.20
2018-02-22T13:12:48.388Z,4.40
2018-02-22T13:13:48.300Z,4.40
2018-02-22T13:14:48.296Z,4.30
2018-02-22T13:15:48.335Z,3.80
2018-02-22T13:16:48.279Z,4.00
2018-02-22T13:17:48.276Z,4.10
2018-02-22T13:18:48.307Z,3.30
2018-02-22T13:19:48.260Z,4.40
2018-02-22T13:20:48.253Z,4.20
2018-02-22T13:21:48.245Z,3.90
2018-02-22T13:22:48.238Z,3.90
2018-02-22T13:23:48.253Z,4.40
2018-02-22T13:24:48.223Z,3.50